Time;durP1;ratioP1;P1;durP2;ratioP2;P2;SDS_P1;SDS_P2;PMS_P1;PMS_P2;Temp;Humidity;BMP_temperature;BMP_pressure;BME280_temperature;BME280_humidity;BME280_pressure;Samples;Min_cycle;Max_cycle;Signal;HPM_P1;HPM_P2
2023/12/21 00:02:00;;;;;;;7.53;6.93;;;3.90;85.60;;;;;;6266549;28;20237;-79
2023/12/21 00:05:04;;;;;;;6.60;6.30;;;3.90;85.70;;;;;;6275869;28;20712;-78
2023/12/21 00:08:09;;;;;;;6.97;6.67;;;4.10;85.50;;;;;;6288110;28;20233;-79
2023/12/21 00:11:12;;;;;;;7.83;7.37;;;4.10;85.50;;;;;;6280231;28;20804;-79
2023/12/21 00:14:15;;;;;;;8.63;8.00;;;4.10;85.50;;;;;;6286329;28;20241;-78
2023/12/21 00:17:18;;;;;;;7.97;7.37;;;4.10;85.80;;;;;;6280045;28;20234;-80
2023/12/21 00:20:21;;;;;;;9.60;8.20;;;4.00;86.20;;;;;;6263792;28;20241;-81
2023/12/21 00:23:25;;;;;;;8.13;7.43;;;4.10;86.40;;;;;;6280243;28;20233;-78
2023/12/21 00:26:29;;;;;;;8.43;7.73;;;4.20;86.10;;;;;;6282897;28;20833;-77
2023/12/21 00:29:32;;;;;;;8.30;7.80;;;4.20;86.20;;;;;;6286777;28;20237;-79
2023/12/21 00:32:35;;;;;;;8.77;8.07;;;4.20;86.40;;;;;;6280181;28;20253;-78
2023/12/21 00:35:38;;;;;;;8.67;8.07;;;4.20;86.30;;;;;;6276792;28;20329;-78
2023/12/21 00:38:42;;;;;;;8.43;7.73;;;4.30;86.50;;;;;;6272574;28;20245;-80
2023/12/21 00:41:45;;;;;;;7.33;6.83;;;4.40;86.60;;;;;;6278989;28;20237;-80
2023/12/21 00:44:48;;;;;;;8.17;7.57;;;4.40;86.60;;;;;;6278996;28;20233;-78
2023/12/21 00:47:51;;;;;;;8.13;7.53;;;4.50;86.50;;;;;;6284377;28;20232;-79
2023/12/21 00:50:55;;;;;;;7.97;7.40;;;4.60;86.30;;;;;;6279028;28;20764;-79
2023/12/21 00:53:59;;;;;;;7.27;6.87;;;4.70;86.30;;;;;;6283940;28;20237;-77
2023/12/21 00:57:02;;;;;;;7.07;6.57;;;4.70;86.40;;;;;;6265173;28;20877;-80
2023/12/21 01:00:15;;;;;;;8.03;7.17;;;4.90;86.00;;;;;;6279427;28;20229;-78
2023/12/21 01:03:18;;;;;;;7.03;6.53;;;4.90;85.90;;;;;;6277916;28;20233;-78
2023/12/21 01:06:22;;;;;;;7.30;6.90;;;5.00;85.50;;;;;;6270055;28;20721;-77
2023/12/21 01:09:26;;;;;;;6.43;6.13;;;5.10;85.30;;;;;;6286587;28;20241;-78
2023/12/21 01:12:32;;;;;;;5.87;5.57;;;5.10;85.60;;;;;;6286827;28;20310;-79
2023/12/21 01:15:37;;;;;;;6.73;6.33;;;5.20;85.60;;;;;;6278695;28;20847;-78
2023/12/21 01:18:41;;;;;;;6.07;5.77;;;5.30;85.50;;;;;;6275828;28;20244;-78
2023/12/21 01:21:44;;;;;;;5.63;5.43;;;5.30;85.40;;;;;;6286446;28;20233;-81
2023/12/21 01:24:49;;;;;;;5.20;4.90;;;5.50;85.10;;;;;;6282907;28;20382;-80
2023/12/21 01:27:52;;;;;;;5.07;4.83;;;5.50;85.10;;;;;;6283725;28;20323;-79
2023/12/21 01:30:55;;;;;;;5.00;4.60;;;5.60;84.90;;;;;;6281477;28;20237;-77
2023/12/21 01:33:58;;;;;;;4.87;4.70;;;5.70;84.60;;;;;;6282070;28;20237;-79
2023/12/21 01:37:01;;;;;;;4.40;4.20;;;5.70;84.70;;;;;;6266156;28;20257;-79
2023/12/21 01:40:07;;;;;;;4.30;4.20;;;5.80;84.50;;;;;;6281943;28;21044;-78
2023/12/21 01:43:10;;;;;;;4.57;4.43;;;6.00;84.20;;;;;;6279903;28;20230;-78
2023/12/21 01:46:14;;;;;;;4.47;4.40;;;6.00;84.00;;;;;;6285095;28;20823;-79
2023/12/21 01:49:18;;;;;;;4.63;4.27;;;6.00;84.10;;;;;;6286182;28;20231;-80
2023/12/21 01:52:22;;;;;;;4.97;4.77;;;6.10;84.20;;;;;;6285538;28;20606;-80
2023/12/21 01:55:28;;;;;;;4.27;4.00;;;6.10;84.00;;;;;;6271052;28;20242;-79
2023/12/21 01:58:32;;;;;;;3.73;3.63;;;6.20;83.90;;;;;;6285011;28;20835;-79
2023/12/21 02:01:36;;;;;;;3.40;3.40;;;6.20;83.80;;;;;;6264857;28;20249;-79
2023/12/21 02:04:40;;;;;;;3.57;3.57;;;6.30;84.00;;;;;;6284538;28;20260;-79
2023/12/21 02:07:43;;;;;;;3.83;3.80;;;6.30;84.20;;;;;;6284246;28;20759;-80
2023/12/21 02:10:47;;;;;;;3.80;3.70;;;6.20;84.20;;;;;;6279728;28;20248;-80
2023/12/21 02:13:50;;;;;;;3.80;3.60;;;6.30;84.20;;;;;;6283859;28;20249;-80
2023/12/21 02:17:00;;;;;;;3.93;3.83;;;6.30;84.40;;;;;;6280819;28;20320;-80
2023/12/21 02:20:04;;;;;;;3.87;3.77;;;6.30;84.70;;;;;;6278322;28;20283;-79
2023/12/21 02:23:09;;;;;;;4.03;4.00;;;6.20;84.70;;;;;;6269506;28;20237;-79
2023/12/21 02:26:13;;;;;;;3.50;3.40;;;6.30;85.00;;;;;;6279581;28;20316;-80
2023/12/21 02:29:16;;;;;;;3.90;3.90;;;6.20;85.20;;;;;;6275816;28;20257;-79
2023/12/21 02:32:19;;;;;;;3.57;3.57;;;6.30;85.30;;;;;;6288655;28;20348;-79
2023/12/21 02:35:24;;;;;;;4.20;4.20;;;6.30;85.50;;;;;;6284872;28;20249;-77
2023/12/21 02:38:28;;;;;;;3.73;3.73;;;6.30;85.50;;;;;;6275259;28;20236;-79
2023/12/21 02:41:33;;;;;;;3.70;3.60;;;6.40;85.40;;;;;;6279942;28;20272;-77
2023/12/21 02:44:36;;;;;;;3.97;3.87;;;6.40;85.20;;;;;;6290435;28;20271;-80
2023/12/21 02:47:39;;;;;;;3.33;3.33;;;6.50;85.10;;;;;;6282929;28;20244;-79
2023/12/21 02:50:42;;;;;;;3.53;3.43;;;6.40;85.20;;;;;;6284651;28;20244;-78
2023/12/21 02:53:45;;;;;;;3.73;3.73;;;6.50;85.40;;;;;;6295960;28;20240;-78
2023/12/21 02:56:50;;;;;;;3.37;3.37;;;6.50;85.40;;;;;;6280102;28;20237;-80
2023/12/21 02:59:53;;;;;;;3.30;3.30;;;6.50;85.20;;;;;;6287571;28;20382;-76
2023/12/21 03:02:56;;;;;;;3.27;3.27;;;6.50;85.20;;;;;;6281526;28;20333;-79
2023/12/21 03:05:59;;;;;;;3.33;3.33;;;6.50;85.40;;;;;;6285905;28;20764;-79
2023/12/21 03:09:02;;;;;;;3.53;3.43;;;6.50;85.60;;;;;;6276724;28;20230;-79
2023/12/21 03:12:08;;;;;;;3.30;3.30;;;6.60;85.50;;;;;;6274140;28;20306;-79
2023/12/21 03:15:11;;;;;;;3.60;3.50;;;6.50;85.70;;;;;;6289360;28;20302;-80
2023/12/21 03:18:14;;;;;;;3.37;3.37;;;6.50;85.90;;;;;;6277034;28;20316;-78
2023/12/21 03:21:17;;;;;;;3.70;3.50;;;6.50;86.10;;;;;;6277457;28;20230;-79
2023/12/21 03:24:21;;;;;;;3.70;3.60;;;6.60;86.00;;;;;;6287599;28;20241;-80
2023/12/21 03:27:25;;;;;;;3.40;3.40;;;6.60;85.80;;;;;;6262966;28;20233;-77
2023/12/21 03:30:28;;;;;;;3.10;3.10;;;6.60;85.90;;;;;;6284594;28;20911;-80
2023/12/21 03:33:31;;;;;;;3.20;3.20;;;6.60;85.90;;;;;;6274236;28;20246;-78
2023/12/21 03:36:34;;;;;;;3.57;3.57;;;6.60;86.20;;;;;;6281034;28;20814;-80
2023/12/21 03:39:38;;;;;;;3.80;3.80;;;6.60;86.30;;;;;;6271191;28;20242;-78
2023/12/21 03:42:42;;;;;;;3.87;3.87;;;6.70;86.30;;;;;;6286250;28;20312;-78
2023/12/21 03:45:45;;;;;;;3.80;3.80;;;6.70;86.40;;;;;;6289317;28;20336;-78
2023/12/21 03:48:48;;;;;;;4.20;4.10;;;6.70;86.50;;;;;;6280113;28;20237;-77
2023/12/21 03:51:52;;;;;;;4.40;4.20;;;6.70;86.60;;;;;;6287694;28;20240;-79
2023/12/21 03:54:55;;;;;;;4.40;4.20;;;6.80;86.40;;;;;;6285172;28;20263;-78
2023/12/21 03:57:59;;;;;;;4.97;4.80;;;6.80;86.40;;;;;;6278412;28;20237;-80
2023/12/21 04:01:02;;;;;;;4.30;4.20;;;6.80;86.30;;;;;;6278313;28;20367;-80
2023/12/21 04:04:06;;;;;;;4.63;4.43;;;6.90;86.20;;;;;;6275468;28;20240;-79
2023/12/21 04:07:09;;;;;;;4.60;4.50;;;7.00;86.00;;;;;;6280636;28;20237;-79
2023/12/21 04:10:13;;;;;;;4.37;4.37;;;7.00;86.00;;;;;;6286086;28;20295;-78
2023/12/21 04:13:17;;;;;;;4.13;4.03;;;6.90;86.20;;;;;;6272046;28;20234;-79
2023/12/21 04:16:20;;;;;;;4.50;4.30;;;7.00;86.30;;;;;;6273408;28;20249;-78
2023/12/21 04:19:23;;;;;;;4.33;4.23;;;7.00;86.50;;;;;;6280459;28;20360;-78
2023/12/21 04:22:26;;;;;;;4.10;4.00;;;7.00;86.60;;;;;;6288007;28;20251;-80
2023/12/21 04:25:30;;;;;;;4.80;4.40;;;7.00;86.60;;;;;;6282456;28;20598;-79
2023/12/21 04:28:35;;;;;;;4.07;4.07;;;7.00;86.50;;;;;;6288480;28;20240;-77
2023/12/21 04:31:42;;;;;;;4.30;4.27;;;7.00;86.60;;;;;;6282680;28;20236;-80
2023/12/21 04:34:46;;;;;;;4.57;4.27;;;7.00;86.80;;;;;;6289032;28;20893;-81
2023/12/21 04:37:49;;;;;;;3.87;3.87;;;7.00;86.80;;;;;;6278606;28;20244;-79
2023/12/21 04:40:52;;;;;;;4.43;4.33;;;7.10;86.70;;;;;;6287604;28;20238;-80
2023/12/21 04:43:59;;;;;;;3.90;3.80;;;7.20;86.60;;;;;;6282643;28;20237;-79
2023/12/21 04:47:02;;;;;;;4.20;4.10;;;7.20;86.50;;;;;;6280026;28;20318;-79
2023/12/21 04:50:06;;;;;;;4.10;4.10;;;7.20;86.40;;;;;;6276774;28;20781;-78
2023/12/21 04:53:09;;;;;;;4.30;4.20;;;7.20;86.30;;;;;;6278124;28;20499;-79
2023/12/21 04:56:12;;;;;;;4.83;4.50;;;7.30;86.20;;;;;;6274664;28;20353;-79
2023/12/21 04:59:16;;;;;;;4.20;4.20;;;7.20;86.40;;;;;;6277565;28;20233;-78
2023/12/21 05:02:19;;;;;;;4.10;4.00;;;7.40;86.20;;;;;;6271410;28;20253;-78
2023/12/21 05:05:23;;;;;;;4.47;4.43;;;7.40;86.10;;;;;;6276568;28;20271;-81
2023/12/21 05:08:26;;;;;;;4.10;3.90;;;7.40;86.20;;;;;;6283791;28;20299;-80
2023/12/21 05:11:29;;;;;;;4.30;4.20;;;7.50;85.90;;;;;;6283422;28;20984;-80
2023/12/21 05:14:34;;;;;;;4.13;4.03;;;7.50;85.70;;;;;;6284930;28;20259;-80
2023/12/21 05:17:37;;;;;;;3.87;3.67;;;7.50;85.70;;;;;;6286058;28;20237;-78
2023/12/21 05:20:40;;;;;;;3.87;3.87;;;7.50;85.60;;;;;;6285144;28;20245;-78
2023/12/21 05:23:43;;;;;;;3.40;3.40;;;7.60;85.20;;;;;;6279773;28;20864;-78
2023/12/21 05:26:46;;;;;;;3.70;3.63;;;7.60;85.20;;;;;;6273265;28;20234;-78
2023/12/21 05:29:51;;;;;;;3.67;3.60;;;7.60;85.10;;;;;;6279372;28;20238;-78
2023/12/21 05:32:54;;;;;;;3.50;3.50;;;7.70;85.00;;;;;;6285592;28;20241;-79
2023/12/21 05:35:57;;;;;;;3.40;3.40;;;7.60;85.20;;;;;;6280750;28;20237;-79
2023/12/21 05:39:03;;;;;;;3.47;3.43;;;7.60;85.00;;;;;;6280579;28;20732;-77
2023/12/21 05:42:19;;;;;;;3.50;3.50;;;7.60;85.20;;;;;;6285125;28;20351;-79
2023/12/21 05:45:23;;;;;;;3.40;3.40;;;7.60;85.30;;;;;;6274031;28;20346;-78
2023/12/21 05:48:26;;;;;;;3.30;3.30;;;7.60;85.30;;;;;;6269376;28;20243;-79
2023/12/21 05:51:31;;;;;;;3.40;3.40;;;7.60;85.50;;;;;;6276835;28;20240;-79
2023/12/21 05:54:34;;;;;;;3.60;3.50;;;7.60;85.30;;;;;;6276344;28;20240;-78
2023/12/21 05:57:37;;;;;;;3.87;3.87;;;7.70;85.10;;;;;;6284457;28;20316;-78
2023/12/21 06:00:41;;;;;;;3.67;3.67;;;7.70;85.10;;;;;;6264184;28;20257;-78
2023/12/21 06:03:44;;;;;;;3.87;3.87;;;7.60;85.30;;;;;;6276765;28;20236;-78
2023/12/21 06:06:48;;;;;;;3.87;3.87;;;7.70;85.40;;;;;;6283918;28;20229;-78
2023/12/21 06:09:51;;;;;;;3.60;3.60;;;7.80;85.20;;;;;;6281144;28;20236;-78
2023/12/21 06:12:54;;;;;;;3.57;3.30;;;7.70;85.30;;;;;;6282478;28;20237;-78
2023/12/21 06:15:59;;;;;;;3.10;3.10;;;7.60;85.50;;;;;;6278075;28;20320;-78
2023/12/21 06:19:03;;;;;;;3.23;3.23;;;7.80;85.10;;;;;;6279454;28;20316;-78
2023/12/21 06:22:06;;;;;;;3.20;3.20;;;7.80;85.10;;;;;;6278261;28;20240;-78
2023/12/21 06:25:11;;;;;;;3.20;3.20;;;7.80;85.20;;;;;;6283068;28;20240;-79
2023/12/21 06:28:14;;;;;;;3.40;3.40;;;7.70;85.40;;;;;;6280409;28;20272;-79
2023/12/21 06:31:18;;;;;;;3.53;3.53;;;7.80;85.30;;;;;;6266177;28;20242;-79
2023/12/21 06:34:23;;;;;;;3.20;3.20;;;7.80;85.20;;;;;;6283070;28;20237;-78
2023/12/21 06:37:26;;;;;;;3.60;3.60;;;7.80;85.00;;;;;;6275443;28;20339;-80
2023/12/21 06:40:29;;;;;;;3.83;3.60;;;7.80;85.00;;;;;;6278042;28;20285;-77
2023/12/21 06:43:33;;;;;;;3.63;3.53;;;7.80;85.00;;;;;;6282365;28;20237;-79
2023/12/21 06:46:37;;;;;;;3.40;3.40;;;7.80;84.90;;;;;;6281364;28;21210;-78
2023/12/21 06:49:41;;;;;;;3.83;3.73;;;7.80;85.00;;;;;;6284698;28;20274;-77
2023/12/21 06:52:44;;;;;;;3.90;3.60;;;7.80;85.20;;;;;;6275748;28;20240;-78
2023/12/21 06:55:47;;;;;;;3.30;3.30;;;7.80;85.20;;;;;;6272550;28;20236;-77
2023/12/21 06:58:50;;;;;;;4.50;4.27;;;7.80;85.20;;;;;;6281669;28;20229;-79
2023/12/21 07:01:55;;;;;;;3.73;3.73;;;7.80;85.40;;;;;;6282218;28;20249;-80
2023/12/21 07:04:58;;;;;;;4.27;4.20;;;7.80;85.30;;;;;;6281808;28;20240;-76
2023/12/21 07:08:02;;;;;;;4.30;4.13;;;7.80;85.10;;;;;;6283245;28;20768;-78
2023/12/21 07:11:05;;;;;;;3.77;3.50;;;7.60;85.50;;;;;;6267183;28;20633;-78
2023/12/21 07:14:08;;;;;;;3.90;3.90;;;7.50;85.60;;;;;;6277144;28;20305;-77
2023/12/21 07:17:13;;;;;;;4.23;4.20;;;7.50;85.60;;;;;;6280950;28;20331;-76
2023/12/21 07:20:20;;;;;;;4.10;3.80;;;7.50;85.40;;;;;;6285762;28;20233;-79
2023/12/21 07:23:23;;;;;;;3.77;3.77;;;7.50;85.00;;;;;;6287838;28;20299;-76
2023/12/21 07:26:27;;;;;;;3.60;3.60;;;7.40;85.00;;;;;;6283008;28;20241;-77
2023/12/21 07:29:30;;;;;;;3.87;3.87;;;7.40;85.20;;;;;;6281786;28;20317;-79
2023/12/21 07:32:34;;;;;;;3.67;3.67;;;7.30;85.10;;;;;;6287883;28;20797;-79
2023/12/21 07:35:37;;;;;;;3.67;3.50;;;7.20;85.30;;;;;;6283387;28;20244;-77
2023/12/21 07:38:40;;;;;;;3.90;3.90;;;7.20;85.20;;;;;;6286704;28;20320;-78
2023/12/21 07:41:43;;;;;;;3.50;3.40;;;7.20;85.40;;;;;;6287254;28;20241;-80
2023/12/21 07:44:46;;;;;;;3.77;3.77;;;7.20;85.30;;;;;;6284988;28;20743;-78
2023/12/21 07:47:51;;;;;;;3.47;3.47;;;7.20;85.50;;;;;;6278305;28;20240;-76
2023/12/21 07:50:54;;;;;;;3.50;3.50;;;7.20;85.30;;;;;;6284216;28;20237;-79
2023/12/21 07:53:57;;;;;;;4.00;3.90;;;7.20;85.30;;;;;;6287068;28;20957;-80
2023/12/21 07:57:00;;;;;;;3.83;3.57;;;7.20;85.20;;;;;;6285242;28;20261;-78
2023/12/21 08:00:04;;;;;;;3.77;3.77;;;7.20;85.50;;;;;;6284214;28;20240;-78
2023/12/21 08:03:08;;;;;;;3.60;3.60;;;7.20;85.40;;;;;;6285910;28;20773;-76
2023/12/21 08:06:21;;;;;;;3.83;3.83;;;7.20;85.50;;;;;;6284714;28;20245;-79
2023/12/21 08:09:24;;;;;;;3.80;3.80;;;7.20;85.40;;;;;;6285038;28;20855;-77
2023/12/21 08:12:27;;;;;;;3.43;3.43;;;7.20;85.60;;;;;;6286344;28;20233;-78
2023/12/21 08:15:30;;;;;;;3.90;3.70;;;7.20;85.50;;;;;;6284898;28;20638;-78
2023/12/21 08:18:35;;;;;;;3.60;3.50;;;7.20;85.20;;;;;;6277586;28;20238;-77
2023/12/21 08:21:38;;;;;;;3.67;3.60;;;7.20;85.20;;;;;;6284492;28;20232;-79
2023/12/21 08:24:41;;;;;;;3.40;3.40;;;7.30;85.00;;;;;;6282322;28;20249;-79
2023/12/21 08:27:44;;;;;;;3.47;3.47;;;7.40;84.70;;;;;;6283777;28;20806;-78
2023/12/21 08:30:47;;;;;;;3.33;3.33;;;7.40;84.40;;;;;;6277805;28;20729;-78
2023/12/21 08:33:52;;;;;;;3.20;3.13;;;7.40;84.20;;;;;;6285373;28;20243;-79
2023/12/21 08:36:55;;;;;;;3.03;3.03;;;7.40;84.40;;;;;;6273977;28;20234;-78
2023/12/21 08:39:58;;;;;;;3.10;3.10;;;7.40;84.50;;;;;;6283767;28;20249;-79
2023/12/21 08:43:02;;;;;;;2.90;2.90;;;7.40;84.50;;;;;;6281220;28;20265;-78
2023/12/21 08:46:05;;;;;;;3.00;3.00;;;7.40;84.40;;;;;;6272867;28;20240;-79
2023/12/21 08:49:11;;;;;;;2.70;2.70;;;7.40;84.40;;;;;;6286132;28;20248;-78
2023/12/21 08:52:16;;;;;;;3.20;3.10;;;7.30;84.90;;;;;;6285959;28;20240;-78
2023/12/21 08:55:19;;;;;;;2.70;2.70;;;7.30;85.10;;;;;;6275594;28;20265;-78
2023/12/21 08:58:22;;;;;;;2.70;2.70;;;7.40;85.10;;;;;;6275243;28;20245;-78
2023/12/21 09:01:26;;;;;;;2.73;2.63;;;7.40;84.60;;;;;;6282906;28;20245;-79
2023/12/21 09:04:30;;;;;;;2.70;2.70;;;7.40;84.70;;;;;;6267421;28;20242;-77
2023/12/21 09:07:34;;;;;;;2.90;2.90;;;7.40;84.80;;;;;;6277476;28;20240;-78
2023/12/21 09:10:37;;;;;;;3.10;2.97;;;7.40;84.70;;;;;;6269004;28;20233;-79
2023/12/21 09:13:40;;;;;;;3.07;2.97;;;7.30;85.30;;;;;;6279368;28;20232;-78
2023/12/21 09:16:43;;;;;;;2.70;2.70;;;7.30;85.10;;;;;;6280779;28;20244;-79
2023/12/21 09:19:48;;;;;;;2.70;2.70;;;7.40;84.80;;;;;;6281480;28;20240;-78
2023/12/21 09:22:51;;;;;;;2.90;2.70;;;7.40;84.80;;;;;;6282993;28;20311;-79
2023/12/21 09:25:54;;;;;;;3.00;2.90;;;7.40;84.80;;;;;;6285698;28;20241;-78
2023/12/21 09:28:59;;;;;;;2.70;2.70;;;7.40;84.70;;;;;;6285125;28;20643;-78
2023/12/21 09:32:02;;;;;;;2.70;2.70;;;7.40;85.10;;;;;;6275137;28;20233;-77
2023/12/21 09:35:08;;;;;;;3.23;2.93;;;7.40;85.20;;;;;;6284758;28;20306;-79
2023/12/21 09:38:11;;;;;;;2.80;2.70;;;7.40;85.00;;;;;;6282302;28;20249;-79
2023/12/21 09:41:14;;;;;;;2.80;2.80;;;7.50;84.60;;;;;;6282453;28;20244;-79
2023/12/21 09:44:18;;;;;;;2.87;2.77;;;7.50;84.60;;;;;;6280935;28;20257;-80
2023/12/21 09:47:23;;;;;;;2.40;2.40;;;7.50;84.60;;;;;;6277039;28;20238;-78
2023/12/21 09:50:29;;;;;;;2.70;2.70;;;7.50;84.40;;;;;;6283054;28;20263;-79
2023/12/21 09:53:36;;;;;;;2.77;2.77;;;7.50;84.40;;;;;;6277733;28;20324;-78
2023/12/21 09:56:41;;;;;;;2.67;2.67;;;7.50;84.70;;;;;;6277945;28;20233;-79
2023/12/21 09:59:44;;;;;;;2.50;2.50;;;7.60;84.40;;;;;;6280929;28;20233;-77
2023/12/21 10:02:47;;;;;;;3.53;3.37;;;7.60;84.30;;;;;;6282955;28;20309;-78
2023/12/21 10:05:52;;;;;;;2.70;2.50;;;7.60;84.50;;;;;;6286086;28;21015;-78
2023/12/21 10:08:55;;;;;;;2.40;2.40;;;7.60;84.40;;;;;;6277690;28;20699;-77
2023/12/21 10:11:58;;;;;;;2.50;2.50;;;7.60;84.40;;;;;;6284904;28;20378;-79
2023/12/21 10:15:03;;;;;;;2.53;2.50;;;7.70;84.10;;;;;;6276290;28;20260;-78
2023/12/21 10:18:08;;;;;;;2.67;2.67;;;7.80;83.70;;;;;;6279861;28;20325;-78
2023/12/21 10:21:12;;;;;;;2.50;2.40;;;7.80;84.00;;;;;;6277199;28;20226;-77
2023/12/21 10:24:15;;;;;;;2.50;2.50;;;7.60;84.50;;;;;;6274054;28;20233;-77
2023/12/21 10:27:21;;;;;;;2.40;2.40;;;7.70;84.40;;;;;;6272462;28;20253;-77
2023/12/21 10:30:25;;;;;;;2.60;2.60;;;7.80;84.20;;;;;;6284010;28;20363;-80
2023/12/21 10:33:29;;;;;;;2.30;2.30;;;7.80;84.00;;;;;;6281112;28;20758;-78
2023/12/21 10:36:33;;;;;;;2.40;2.40;;;7.80;83.80;;;;;;6284484;28;20244;-78
2023/12/21 10:39:37;;;;;;;2.57;2.57;;;7.80;84.10;;;;;;6283865;28;20991;-79
2023/12/21 10:42:44;;;;;;;2.23;2.23;;;7.90;84.00;;;;;;6284893;28;20248;-77
2023/12/21 10:45:49;;;;;;;2.53;2.53;;;8.00;83.60;;;;;;6280480;28;20234;-77
2023/12/21 10:48:53;;;;;;;2.63;2.63;;;8.00;83.90;;;;;;6284167;28;20241;-80
2023/12/21 10:52:01;;;;;;;2.43;2.43;;;7.90;83.80;;;;;;6287895;28;21004;-81
2023/12/21 10:55:05;;;;;;;2.50;2.50;;;7.90;83.70;;;;;;6287014;28;20236;-78
2023/12/21 10:58:09;;;;;;;2.30;2.30;;;8.00;83.60;;;;;;6280621;28;20324;-78
2023/12/21 11:01:12;;;;;;;2.60;2.60;;;8.00;83.40;;;;;;6275748;28;20237;-78
2023/12/21 11:04:18;;;;;;;2.63;2.63;;;8.00;83.70;;;;;;6286831;28;20244;-80
2023/12/21 11:07:25;;;;;;;2.60;2.53;;;8.00;83.60;;;;;;6278981;28;20607;-78
2023/12/21 11:10:43;;;;;;;2.73;2.53;;;8.00;83.80;;;;;;6265489;28;20233;-78
2023/12/21 11:14:19;;;;;;;2.90;2.80;;;8.00;83.80;;;;;;6272407;28;20621;-80
2023/12/21 11:17:25;;;;;;;2.73;2.53;;;8.00;83.50;;;;;;6275689;28;20813;-77
2023/12/21 11:20:34;;;;;;;2.60;2.60;;;8.10;83.30;;;;;;6270532;28;20236;-78
2023/12/21 11:23:53;;;;;;;2.60;2.60;;;8.10;82.90;;;;;;6274643;28;20749;-79
2023/12/21 11:26:59;;;;;;;2.80;2.70;;;8.10;83.10;;;;;;6284898;28;20823;-79
2023/12/21 11:30:10;;;;;;;2.53;2.43;;;8.10;83.20;;;;;;6287963;28;20233;-79
2023/12/21 11:33:13;;;;;;;2.67;2.67;;;8.20;82.90;;;;;;6286138;28;20853;-78
2023/12/21 11:36:25;;;;;;;2.40;2.40;;;8.20;83.20;;;;;;6288800;28;20229;-78
2023/12/21 11:39:31;;;;;;;2.73;2.73;;;8.20;83.40;;;;;;6281661;28;20244;-78
2023/12/21 11:42:35;;;;;;;2.40;2.40;;;8.10;83.60;;;;;;6285983;28;20833;-77
2023/12/21 11:45:39;;;;;;;2.40;2.40;;;8.10;84.00;;;;;;6288001;28;20245;-79
2023/12/21 11:48:43;;;;;;;2.60;2.40;;;8.10;84.10;;;;;;6287825;28;20229;-78
2023/12/21 11:51:49;;;;;;;2.60;2.60;;;8.10;84.20;;;;;;6287102;28;20263;-77
2023/12/21 11:54:53;;;;;;;2.50;2.40;;;8.10;84.40;;;;;;6287908;28;20288;-78
2023/12/21 11:58:16;;;;;;;2.43;2.43;;;8.10;85.00;;;;;;6284742;28;20233;-79
2023/12/21 12:01:25;;;;;;;2.60;2.50;;;8.00;85.00;;;;;;6278025;28;20316;-77
2023/12/21 12:04:29;;;;;;;2.60;2.60;;;8.00;85.20;;;;;;6287230;28;20237;-78
2023/12/21 12:07:34;;;;;;;2.40;2.40;;;8.00;85.40;;;;;;6288141;28;20256;-79
2023/12/21 12:10:39;;;;;;;2.83;2.83;;;8.00;85.50;;;;;;6281193;28;20234;-79
2023/12/21 12:13:43;;;;;;;2.53;2.50;;;8.00;85.50;;;;;;6282093;28;20685;-81
2023/12/21 12:16:47;;;;;;;2.67;2.67;;;8.00;85.50;;;;;;6277640;28;20328;-77
2023/12/21 12:19:50;;;;;;;2.83;2.50;;;8.00;85.90;;;;;;6278789;28;20248;-79
2023/12/21 12:22:53;;;;;;;2.43;2.43;;;8.10;85.80;;;;;;6286315;28;20230;-79
2023/12/21 12:25:59;;;;;;;2.67;2.67;;;8.10;85.70;;;;;;6286025;28;20302;-79
2023/12/21 12:29:02;;;;;;;2.50;2.50;;;8.10;85.70;;;;;;6282187;28;20270;-79
2023/12/21 12:32:06;;;;;;;2.67;2.67;;;8.10;85.90;;;;;;6285787;28;20241;-78
2023/12/21 12:35:11;;;;;;;2.70;2.60;;;8.10;86.10;;;;;;6287284;28;20379;-77
2023/12/21 12:38:16;;;;;;;2.50;2.50;;;8.10;86.30;;;;;;6284702;28;20225;-79
2023/12/21 12:41:21;;;;;;;3.23;2.70;;;8.10;86.30;;;;;;6275369;28;20229;-77
2023/12/21 12:44:25;;;;;;;7.10;6.40;;;8.10;86.50;;;;;;6276230;28;20237;-79
2023/12/21 12:47:28;;;;;;;2.90;2.90;;;8.10;86.60;;;;;;6275723;28;20321;-78
2023/12/21 12:50:32;;;;;;;2.40;2.40;;;8.10;86.70;;;;;;6276678;28;20275;-79
2023/12/21 12:53:35;;;;;;;3.50;2.60;;;8.10;86.70;;;;;;6285731;28;20241;-79
2023/12/21 12:56:47;;;;;;;2.70;2.60;;;8.20;86.40;;;;;;6285097;28;20284;-77
2023/12/21 12:59:50;;;;;;;2.60;2.60;;;8.20;86.20;;;;;;6282606;28;20612;-78
2023/12/21 13:02:53;;;;;;;3.10;3.00;;;8.30;86.20;;;;;;6275626;28;20383;-79
2023/12/21 13:05:57;;;;;;;2.53;2.50;;;8.30;86.10;;;;;;6290530;28;20233;-78
2023/12/21 13:09:13;;;;;;;2.47;2.47;;;8.20;86.10;;;;;;6282804;28;20264;-79
2023/12/21 13:12:18;;;;;;;2.60;2.50;;;8.20;86.10;;;;;;6275212;28;20257;-77
2023/12/21 13:15:21;;;;;;;2.87;2.77;;;8.30;85.90;;;;;;6278760;28;20724;-77
2023/12/21 13:18:24;;;;;;;2.23;2.23;;;8.30;86.00;;;;;;6276573;28;20237;-77
2023/12/21 13:21:27;;;;;;;2.40;2.40;;;8.40;85.80;;;;;;6277829;28;20233;-77
2023/12/21 13:24:32;;;;;;;2.80;2.70;;;8.30;86.00;;;;;;6276494;28;20245;-78
2023/12/21 13:27:36;;;;;;;2.90;2.70;;;8.30;86.10;;;;;;6273062;28;20261;-78
2023/12/21 13:30:39;;;;;;;2.50;2.40;;;8.40;85.90;;;;;;6277708;28;20740;-78
2023/12/21 13:33:44;;;;;;;2.80;2.70;;;8.40;85.80;;;;;;6284276;28;20245;-78
2023/12/21 13:36:48;;;;;;;2.43;2.43;;;8.40;85.90;;;;;;6288045;28;20237;-79
2023/12/21 13:39:51;;;;;;;2.30;2.30;;;8.40;86.00;;;;;;6284874;28;20312;-79
2023/12/21 13:42:56;;;;;;;2.47;2.47;;;8.40;85.60;;;;;;6278750;28;20245;-79
2023/12/21 13:46:00;;;;;;;2.50;2.50;;;8.40;85.70;;;;;;6258367;28;20236;-78
2023/12/21 13:49:03;;;;;;;2.70;2.60;;;8.40;85.90;;;;;;6295223;28;20296;-78
2023/12/21 13:52:08;;;;;;;2.53;2.53;;;8.40;86.00;;;;;;6278776;28;20797;-76
2023/12/21 13:55:12;;;;;;;2.60;2.50;;;8.40;86.00;;;;;;6282984;28;20735;-78
2023/12/21 13:58:16;;;;;;;2.53;2.43;;;8.40;85.80;;;;;;6279797;28;20313;-80
2023/12/21 14:01:22;;;;;;;2.50;2.50;;;8.50;85.80;;;;;;6278728;28;20229;-77
2023/12/21 14:04:25;;;;;;;2.40;2.40;;;8.50;85.60;;;;;;6283599;28;20641;-77
2023/12/21 14:07:29;;;;;;;2.60;2.40;;;8.60;85.50;;;;;;6282804;28;20268;-79
2023/12/21 14:10:34;;;;;;;2.47;2.47;;;8.60;85.40;;;;;;6278027;28;20303;-77
2023/12/21 14:13:38;;;;;;;2.73;2.73;;;8.60;85.30;;;;;;6279599;28;20476;-78
2023/12/21 14:16:42;;;;;;;2.43;2.43;;;8.80;84.80;;;;;;6281310;28;20528;-78
2023/12/21 14:19:45;;;;;;;2.30;2.30;;;8.90;84.40;;;;;;6284064;28;20245;-80
2023/12/21 14:22:48;;;;;;;2.30;2.30;;;8.90;84.00;;;;;;6273487;28;20237;-79
2023/12/21 14:25:52;;;;;;;2.57;2.47;;;9.00;83.70;;;;;;6280479;28;20261;-81
2023/12/21 14:28:56;;;;;;;2.70;2.60;;;9.00;83.30;;;;;;6271059;28;20717;-77
2023/12/21 14:32:00;;;;;;;2.40;2.40;;;9.00;83.40;;;;;;6272373;28;20244;-80
2023/12/21 14:35:03;;;;;;;2.07;2.07;;;9.00;83.20;;;;;;6275776;28;20242;-79
2023/12/21 14:38:07;;;;;;;2.60;2.50;;;9.00;83.20;;;;;;6284908;28;20773;-81
2023/12/21 14:41:10;;;;;;;2.47;2.47;;;9.10;82.40;;;;;;6272453;28;20388;-79
2023/12/21 14:44:15;;;;;;;2.40;2.40;;;9.20;82.10;;;;;;6279123;28;20646;-77
2023/12/21 14:47:18;;;;;;;2.43;2.33;;;9.20;82.20;;;;;;6281758;28;20233;-80
2023/12/21 14:50:22;;;;;;;2.40;2.40;;;9.20;82.10;;;;;;6267490;28;20318;-79
2023/12/21 14:53:26;;;;;;;2.50;2.30;;;9.20;82.20;;;;;;6274477;28;20241;-76
2023/12/21 14:56:29;;;;;;;2.27;2.17;;;9.00;82.60;;;;;;6279177;28;20361;-79
2023/12/21 14:59:33;;;;;;;2.37;2.37;;;8.90;81.30;;;;;;6281226;28;20724;-80
2023/12/21 15:02:36;;;;;;;2.50;2.30;;;8.70;81.50;;;;;;6283680;28;20332;-80
2023/12/21 15:05:40;;;;;;;2.67;2.50;;;8.60;81.50;;;;;;6282834;28;20321;-81
2023/12/21 15:08:43;;;;;;;2.20;2.20;;;8.60;81.60;;;;;;6281882;28;20236;-78
2023/12/21 15:11:46;;;;;;;2.37;2.17;;;8.60;81.90;;;;;;6281236;28;20234;-78
2023/12/21 15:14:53;;;;;;;2.50;2.50;;;8.60;81.60;;;;;;6279366;28;20230;-80
2023/12/21 15:17:56;;;;;;;2.60;2.50;;;8.60;80.90;;;;;;6276153;28;20230;-78
2023/12/21 15:21:00;;;;;;;2.67;2.47;;;8.60;80.70;;;;;;6275244;28;20230;-80
2023/12/21 15:24:03;;;;;;;2.60;2.50;;;8.60;80.00;;;;;;6280332;28;20714;-78
2023/12/21 15:27:06;;;;;;;2.87;2.87;;;8.60;79.90;;;;;;6277534;28;20710;-79
2023/12/21 15:30:11;;;;;;;3.00;2.80;;;8.40;78.90;;;;;;6277189;28;20244;-80
2023/12/21 15:33:15;;;;;;;2.93;2.60;;;8.30;78.10;;;;;;6283240;28;20363;-79
2023/12/21 15:36:19;;;;;;;2.50;2.50;;;8.20;78.30;;;;;;6287409;28;20238;-77
2023/12/21 15:39:22;;;;;;;2.60;2.50;;;8.00;77.60;;;;;;6275869;28;20240;-81
2023/12/21 15:42:25;;;;;;;2.90;2.80;;;7.90;77.50;;;;;;6281953;28;20296;-79
2023/12/21 15:45:32;;;;;;;3.70;3.03;;;7.80;77.60;;;;;;6282018;28;20237;-80
2023/12/21 15:48:36;;;;;;;2.90;2.80;;;7.70;77.20;;;;;;6287829;28;20762;-81
2023/12/21 15:51:39;;;;;;;3.27;3.00;;;7.60;77.00;;;;;;6287225;28;20882;-81
2023/12/21 15:54:42;;;;;;;3.53;3.23;;;7.50;77.30;;;;;;6281973;28;20237;-78
2023/12/21 15:57:46;;;;;;;3.30;3.20;;;7.50;77.70;;;;;;6281498;28;20229;-79
2023/12/21 16:00:51;;;;;;;2.93;2.83;;;7.40;77.40;;;;;;6282667;28;20316;-80
2023/12/21 16:03:54;;;;;;;2.93;2.83;;;7.50;77.20;;;;;;6277254;28;20741;-79
2023/12/21 16:06:58;;;;;;;3.10;3.00;;;7.40;77.40;;;;;;6273725;28;20249;-80
2023/12/21 16:10:02;;;;;;;4.80;3.03;;;7.30;77.40;;;;;;6287083;28;20330;-80
2023/12/21 16:13:05;;;;;;;3.60;3.30;;;7.30;77.10;;;;;;6287606;28;20843;-80